Lancaster, Indiana
Current Conditions -  °F | °C
As of 4:35 PM on Wednesday 26 Nov 2014 (Local Time) from KHHG Reporting Station
Overcast Overcast  
Wind Chill: 23°   Ceiling: 2000
Heat Index: 28°   Visibility: 10mi
Dew Point: 21°   Wind: 5mph
Humidity: 76%   Direction: 360°N
Pressure: 30.09"   Gusts: NA
Location:  40.9238°N, 85.5001°W
Report Text: KHHG 262135Z AUTO 36004KT 10SM OVC020 M02/M06 A3009 RMK AO2 T10221060
Loading
Personal Weather Stations






























Interactive Weather Map New forecast layout! Learn more

10-Day Weather Forecast

Advertisements
Track Severe Weather on mobile